Time;durP1;ratioP1;P1;durP2;ratioP2;P2;SDS_P1;SDS_P2;PMS_P1;PMS_P2;Temp;Humidity;BMP_temperature;BMP_pressure;BME280_temperature;BME280_humidity;BME280_pressure;Samples;Min_cycle;Max_cycle;Signal;HPM_P1;HPM_P2
2022/02/03 00:00:03;;;;;;;11.93;7.65;;;;;;;;;;143729;577;46020;-58
2022/02/03 00:02:37;;;;;;;15.30;10.05;;;;;;;;;;143727;566;46022;-58
2022/02/03 00:05:16;;;;;;;15.77;9.77;;;;;;;;;;143724;621;46021;-58
2022/02/03 00:10:46;;;;;;;15.52;10.52;;;;;;;;;;143730;660;46021;-58
2022/02/03 00:16:27;;;;;;;14.60;9.45;;;;;;;;;;143724;575;46020;-58
2022/02/03 00:22:14;;;;;;;13.02;8.52;;;;;;;;;;143733;583;45020;-58
2022/02/03 00:25:10;;;;;;;18.10;10.43;;;;;;;;;;143727;593;46024;-58
2022/02/03 00:28:15;;;;;;;13.73;8.73;;;;;;;;;;143724;604;46917;-58
2022/02/03 00:33:48;;;;;;;11.38;8.13;;;;;;;;;;143730;579;46021;-58
2022/02/03 00:36:27;;;;;;;13.15;8.05;;;;;;;;;;143728;566;46020;-58
2022/02/03 00:50:24;;;;;;;10.95;7.70;;;;;;;;;;143727;672;46020;-58
2022/02/03 00:52:52;;;;;;;9.82;6.50;;;;;;;;;;143726;590;46020;-58
2022/02/03 00:55:19;;;;;;;11.00;6.72;;;;;;;;;;143732;589;45021;-58
2022/02/03 00:57:53;;;;;;;10.18;7.07;;;;;;;;;;143727;617;46023;-58
2022/02/03 01:00:21;;;;;;;10.80;6.97;;;;;;;;;;143724;663;46020;-58
2022/02/03 01:02:52;;;;;;;9.13;6.32;;;;;;;;;;143725;659;46012;-58
2022/02/03 01:05:19;;;;;;;10.70;6.75;;;;;;;;;;143731;576;46020;-58
2022/02/03 01:07:49;;;;;;;10.32;7.03;;;;;;;;;;143726;598;46022;-58
2022/02/03 01:10:31;;;;;;;10.90;6.32;;;;;;;;;;143728;581;46021;-58
2022/02/03 01:13:09;;;;;;;10.20;6.78;;;;;;;;;;143729;613;46012;-58
2022/02/03 01:15:48;;;;;;;10.63;6.55;;;;;;;;;;143729;583;46020;-58
2022/02/03 01:43:44;;;;;;;11.75;6.87;;;;;;;;;;143725;578;46020;-58
2022/02/03 01:46:16;;;;;;;9.70;6.65;;;;;;;;;;143728;588;46012;-58
2022/02/03 01:49:09;;;;;;;8.73;5.95;;;;;;;;;;143730;582;46010;-58
2022/02/03 01:51:53;;;;;;;10.20;6.45;;;;;;;;;;143728;605;46012;-58
2022/02/03 01:54:27;;;;;;;10.82;7.00;;;;;;;;;;143724;589;46020;-58
2022/02/03 01:57:13;;;;;;;8.85;5.55;;;;;;;;;;143727;616;46012;-58
2022/02/03 01:59:41;;;;;;;13.40;7.82;;;;;;;;;;143731;585;46010;-58
2022/02/03 02:02:09;;;;;;;10.55;7.12;;;;;;;;;;143727;606;46022;-58
2022/02/03 02:05:15;;;;;;;11.75;6.70;;;;;;;;;;143727;589;46020;-58
2022/02/03 02:08:27;;;;;;;9.18;6.55;;;;;;;;;;143728;563;46012;-58
2022/02/03 02:11:37;;;;;;;10.23;6.70;;;;;;;;;;143732;584;45021;-58
2022/02/03 02:43:32;;;;;;;13.15;6.70;;;;;;;;;;143728;622;46020;-58
2022/02/03 02:46:27;;;;;;;9.25;6.55;;;;;;;;;;143732;572;45020;-58
2022/02/03 02:49:22;;;;;;;9.63;6.93;;;;;;;;;;143727;675;46023;-58
2022/02/03 02:52:03;;;;;;;12.75;6.35;;;;;;;;;;143723;580;46020;-58
2022/02/03 02:55:12;;;;;;;7.97;5.50;;;;;;;;;;143728;679;46013;-58
2022/02/03 02:58:06;;;;;;;9.65;6.57;;;;;;;;;;143729;578;46020;-60
2022/02/03 03:29:43;;;;;;;9.63;6.78;;;;;;;;;;143729;596;46012;-58
2022/02/03 03:37:50;;;;;;;11.07;7.25;;;;;;;;;;143727;622;46917;-58
2022/02/03 03:40:18;;;;;;;12.45;8.48;;;;;;;;;;143727;601;46013;-58
2022/02/03 03:42:53;;;;;;;11.65;8.07;;;;;;;;;;143732;605;46020;-58
2022/02/03 03:45:21;;;;;;;;;;;;;;;;;;143733;979;46020;-58
2022/02/03 03:47:51;;;;;;;10.70;7.82;;;;;;;;;;143737;586;46020;-58
2022/02/03 03:50:18;;;;;;;12.02;7.72;;;;;;;;;;143728;564;46012;-58
2022/02/03 03:52:58;;;;;;;12.57;8.68;;;;;;;;;;143731;592;46012;-58
2022/02/03 03:55:38;;;;;;;13.90;9.70;;;;;;;;;;143728;625;46023;-58
2022/02/03 03:58:35;;;;;;;12.27;8.10;;;;;;;;;;143727;604;46020;-58
2022/02/03 04:32:22;;;;;;;13.13;8.20;;;;;;;;;;143727;579;46014;-58
2022/02/03 04:41:15;;;;;;;13.30;8.23;;;;;;;;;;143730;570;46021;-58
2022/02/03 05:04:16;;;;;;;6.60;3.90;;;;;;;;;;143728;576;46023;-58
2022/02/03 05:07:12;;;;;;;6.03;4.05;;;;;;;;;;143732;603;45020;-58
2022/02/03 05:14:57;;;;;;;5.65;3.83;;;;;;;;;;143729;611;45919;-59
2022/02/03 05:34:53;;;;;;;5.57;3.75;;;;;;;;;;143728;589;46020;-58
2022/02/03 05:52:56;;;;;;;5.97;3.72;;;;;;;;;;143730;656;45917;-59
2022/02/03 06:01:21;;;;;;;8.13;3.83;;;;;;;;;;143729;605;46013;-59
2022/02/03 06:09:38;;;;;;;6.80;3.75;;;;;;;;;;143728;564;46013;-59
2022/02/03 06:12:34;;;;;;;5.03;3.17;;;;;;;;;;143728;624;46022;-59
2022/02/03 06:15:20;;;;;;;6.15;4.12;;;;;;;;;;143726;621;46020;-59
2022/02/03 06:23:48;;;;;;;4.68;3.65;;;;;;;;;;143726;590;46024;-59
2022/02/03 06:29:10;;;;;;;6.40;4.20;;;;;;;;;;143727;667;46020;-59
2022/02/03 06:31:39;;;;;;;8.25;3.95;;;;;;;;;;143729;716;46011;-58
2022/02/03 06:34:06;;;;;;;6.97;3.60;;;;;;;;;;143728;606;46022;-59
2022/02/03 06:36:34;;;;;;;6.43;3.97;;;;;;;;;;143726;591;46020;-59
2022/02/03 06:39:01;;;;;;;7.55;3.95;;;;;;;;;;143729;611;45911;-59
2022/02/03 06:41:28;;;;;;;5.28;3.60;;;;;;;;;;143732;564;46010;-59
2022/02/03 06:43:55;;;;;;;5.22;3.65;;;;;;;;;;143729;587;46020;-58
2022/02/03 06:46:24;;;;;;;6.93;4.15;;;;;;;;;;143727;571;46020;-58
2022/02/03 06:49:04;;;;;;;7.05;3.70;;;;;;;;;;143728;605;46012;-59
2022/02/03 06:51:34;;;;;;;5.53;3.50;;;;;;;;;;143732;563;46010;-59
2022/02/03 06:54:07;;;;;;;5.00;3.30;;;;;;;;;;143729;686;46023;-58
2022/02/03 06:56:46;;;;;;;6.35;3.62;;;;;;;;;;143725;567;47012;-58
2022/02/03 06:59:15;;;;;;;12.05;6.57;;;;;;;;;;143728;613;46012;-59
2022/02/03 07:01:44;;;;;;;6.70;4.00;;;;;;;;;;143732;615;46011;-58
2022/02/03 07:04:19;;;;;;;7.93;4.55;;;;;;;;;;143728;612;46022;-59
2022/02/03 07:06:46;;;;;;;7.82;5.10;;;;;;;;;;143728;605;46020;-59
2022/02/03 07:09:13;;;;;;;7.95;3.55;;;;;;;;;;143730;623;45021;-58
2022/02/03 07:11:41;;;;;;;6.87;3.72;;;;;;;;;;143732;585;46020;-59
2022/02/03 07:14:10;;;;;;;5.87;4.30;;;;;;;;;;143728;572;46022;-59
2022/02/03 07:16:46;;;;;;;7.75;4.15;;;;;;;;;;143728;610;46020;-59
2022/02/03 07:19:14;;;;;;;10.63;4.00;;;;;;;;;;143728;588;46012;-59
2022/02/03 07:21:40;;;;;;;8.73;3.87;;;;;;;;;;143734;626;45020;-59
2022/02/03 07:24:07;;;;;;;6.12;3.97;;;;;;;;;;143730;602;46023;-59
2022/02/03 07:26:35;;;;;;;7.65;4.12;;;;;;;;;;143728;579;46020;-59
2022/02/03 07:29:03;;;;;;;5.00;3.40;;;;;;;;;;143729;576;46012;-59
2022/02/03 07:31:31;;;;;;;20.08;5.37;;;;;;;;;;143732;590;46021;-58
2022/02/03 07:34:03;;;;;;;6.85;4.28;;;;;;;;;;143729;616;46022;-59
2022/02/03 07:36:30;;;;;;;4.03;3.25;;;;;;;;;;143729;572;46020;-59
2022/02/03 07:38:59;;;;;;;7.28;3.80;;;;;;;;;;143729;655;46012;-59
2022/02/03 07:41:26;;;;;;;13.68;3.62;;;;;;;;;;143731;604;46018;-59
2022/02/03 07:43:52;;;;;;;6.12;3.62;;;;;;;;;;143729;573;46022;-58
2022/02/03 07:46:19;;;;;;;4.87;3.55;;;;;;;;;;143729;579;46020;-59
2022/02/03 07:48:49;;;;;;;5.25;3.58;;;;;;;;;;143728;587;46012;-58
2022/02/03 07:51:16;;;;;;;15.10;5.50;;;;;;;;;;143734;570;45020;-58
2022/02/03 07:53:43;;;;;;;7.03;4.03;;;;;;;;;;143730;574;46023;-58
2022/02/03 07:56:11;;;;;;;7.07;3.72;;;;;;;;;;143729;658;46020;-59
2022/02/03 07:58:37;;;;;;;6.10;3.15;;;;;;;;;;143728;601;46012;-59
2022/02/03 08:01:04;;;;;;;7.45;3.35;;;;;;;;;;143733;648;46021;-58
2022/02/03 08:03:31;;;;;;;6.18;3.40;;;;;;;;;;143729;575;47020;-59
2022/02/03 08:06:06;;;;;;;8.35;3.70;;;;;;;;;;143728;604;46020;-58
2022/02/03 08:08:38;;;;;;;6.83;3.43;;;;;;;;;;143728;606;46013;-59
2022/02/03 08:11:12;;;;;;;6.35;3.20;;;;;;;;;;143732;571;47010;-59
2022/02/03 08:13:50;;;;;;;4.10;3.40;;;;;;;;;;143728;663;47020;-58
2022/02/03 08:16:35;;;;;;;5.70;3.60;;;;;;;;;;143727;571;46918;-58
2022/02/03 08:21:57;;;;;;;4.72;2.78;;;;;;;;;;143730;582;47020;-58
2022/02/03 08:24:29;;;;;;;4.93;3.58;;;;;;;;;;143729;572;46023;-59
2022/02/03 08:27:22;;;;;;;4.62;3.10;;;;;;;;;;143725;582;47012;-58
2022/02/03 08:32:30;;;;;;;11.38;3.33;;;;;;;;;;143731;581;46010;-59
2022/02/03 08:35:08;;;;;;;6.25;3.42;;;;;;;;;;143729;621;46022;-59
2022/02/03 08:37:44;;;;;;;6.68;3.40;;;;;;;;;;143726;605;46920;-58
2022/02/03 08:40:22;;;;;;;7.93;3.70;;;;;;;;;;143730;616;46012;-58
2022/02/03 08:42:49;;;;;;;7.12;3.75;;;;;;;;;;143731;571;46020;-59
2022/02/03 08:45:16;;;;;;;7.30;3.35;;;;;;;;;;143730;602;46021;-58
2022/02/03 08:47:44;;;;;;;6.03;3.15;;;;;;;;;;143729;600;46020;-59
2022/02/03 08:50:10;;;;;;;8.40;3.40;;;;;;;;;;143731;566;45020;-59
2022/02/03 08:52:48;;;;;;;8.43;5.22;;;;;;;;;;143732;676;46021;-58
2022/02/03 08:55:26;;;;;;;7.05;4.57;;;;;;;;;;143728;569;46023;-58
2022/02/03 09:37:22;;;;;;;7.05;3.87;;;;;;;;;;143732;614;46013;-59
2022/02/03 09:40:16;;;;;;;6.50;3.83;;;;;;;;;;143729;621;46913;-58
2022/02/03 09:50:11;;;;;;;5.55;3.80;;;;;;;;;;143727;632;46020;-58
2022/02/03 09:59:19;;;;;;;6.22;3.58;;;;;;;;;;143730;575;46019;-58
2022/02/03 10:01:54;;;;;;;7.35;3.62;;;;;;;;;;143730;603;46023;-60
2022/02/03 10:07:34;;;;;;;7.35;3.85;;;;;;;;;;143729;641;47021;-59
2022/02/03 10:10:07;;;;;;;7.18;4.00;;;;;;;;;;143733;621;46010;-59
2022/02/03 10:12:40;;;;;;;8.30;3.72;;;;;;;;;;143731;618;46022;-60
2022/02/03 10:15:11;;;;;;;7.60;4.37;;;;;;;;;;143728;581;46021;-60
2022/02/03 10:17:44;;;;;;;7.57;3.95;;;;;;;;;;143727;569;46020;-59
2022/02/03 10:20:14;;;;;;;11.35;3.33;;;;;;;;;;143730;619;46020;-59
2022/02/03 10:22:50;;;;;;;6.85;3.40;;;;;;;;;;143727;615;47021;-59
2022/02/03 10:25:50;;;;;;;6.00;3.58;;;;;;;;;;143727;578;46020;-59
2022/02/03 10:28:17;;;;;;;9.77;4.15;;;;;;;;;;143729;586;46012;-59
2022/02/03 10:30:48;;;;;;;9.15;4.47;;;;;;;;;;143733;675;46010;-60
2022/02/03 10:33:16;;;;;;;6.37;3.65;;;;;;;;;;143730;621;46022;-60
2022/02/03 10:35:55;;;;;;;6.65;3.22;;;;;;;;;;143729;570;46021;-59
2022/02/03 10:38:54;;;;;;;7.70;3.60;;;;;;;;;;143729;585;46902;-59
2022/02/03 10:44:40;;;;;;;6.22;3.47;;;;;;;;;;143732;598;45032;-58
2022/02/03 10:58:55;;;;;;;5.20;3.42;;;;;;;;;;143732;587;45021;-59
2022/02/03 11:01:51;;;;;;;6.60;3.70;;;;;;;;;;143726;602;46012;-58
2022/02/03 11:07:11;;;;;;;5.50;3.42;;;;;;;;;;143730;592;46022;-58
2022/02/03 11:09:53;;;;;;;7.65;3.72;;;;;;;;;;143727;571;46020;-59
2022/02/03 11:12:23;;;;;;;5.10;3.85;;;;;;;;;;143726;640;47020;-59
2022/02/03 11:14:51;;;;;;;6.85;3.65;;;;;;;;;;143732;672;46012;-59
2022/02/03 11:17:19;;;;;;;9.75;4.05;;;;;;;;;;143729;619;46022;-58
2022/02/03 11:19:49;;;;;;;9.65;5.37;;;;;;;;;;143728;581;46020;-59
2022/02/03 11:22:22;;;;;;;6.60;3.87;;;;;;;;;;143728;619;46012;-59
2022/02/03 11:25:04;;;;;;;4.87;3.08;;;;;;;;;;143733;575;46020;-59
2022/02/03 11:27:48;;;;;;;6.45;3.40;;;;;;;;;;143727;657;46022;-59
2022/02/03 11:33:40;;;;;;;5.78;3.42;;;;;;;;;;143729;582;46022;-59
2022/02/03 11:51:07;;;;;;;8.77;3.87;;;;;;;;;;143730;611;45910;-59
2022/02/03 11:54:21;;;;;;;6.82;3.30;;;;;;;;;;143727;623;46020;-59
2022/02/03 12:03:14;;;;;;;10.73;3.62;;;;;;;;;;143730;569;46020;-59
2022/02/03 12:06:23;;;;;;;6.85;2.95;;;;;;;;;;143725;593;46864;-58
2022/02/03 12:11:46;;;;;;;6.53;3.33;;;;;;;;;;143730;662;46020;-59
2022/02/03 12:17:26;;;;;;;6.35;3.05;;;;;;;;;;143729;601;45918;-59
2022/02/03 12:20:12;;;;;;;7.90;3.28;;;;;;;;;;143728;607;46012;-58
2022/02/03 12:25:56;;;;;;;7.05;3.72;;;;;;;;;;143729;587;46012;-59
2022/02/03 12:28:35;;;;;;;6.90;4.03;;;;;;;;;;143724;590;46021;-59
2022/02/03 12:31:36;;;;;;;7.00;3.03;;;;;;;;;;143728;598;46012;-59
2022/02/03 12:45:28;;;;;;;6.78;3.58;;;;;;;;;;143729;583;46020;-59
2022/02/03 12:48:04;;;;;;;8.20;3.28;;;;;;;;;;143728;632;46022;-59
2022/02/03 12:50:36;;;;;;;5.40;3.37;;;;;;;;;;143727;584;46021;-59
2022/02/03 12:53:05;;;;;;;6.32;3.62;;;;;;;;;;143726;590;46012;-59
2022/02/03 12:55:35;;;;;;;7.37;4.00;;;;;;;;;;143730;622;46020;-59
2022/02/03 12:58:12;;;;;;;5.57;3.85;;;;;;;;;;143727;619;46022;-59
2022/02/03 13:00:48;;;;;;;6.82;3.58;;;;;;;;;;143725;578;46020;-59
2022/02/03 13:03:17;;;;;;;7.28;3.72;;;;;;;;;;143725;569;46020;-58
2022/02/03 13:05:56;;;;;;;8.40;3.35;;;;;;;;;;143732;592;45021;-59
2022/02/03 13:08:37;;;;;;;6.07;3.53;;;;;;;;;;143728;603;46020;-59
2022/02/03 13:11:22;;;;;;;8.13;3.90;;;;;;;;;;143724;572;46020;-59
2022/02/03 13:17:10;;;;;;;4.25;3.10;;;;;;;;;;143728;594;46020;-59
2022/02/03 13:19:57;;;;;;;7.18;3.37;;;;;;;;;;143727;567;46022;-59
2022/02/03 13:22:41;;;;;;;5.95;3.58;;;;;;;;;;143726;602;46020;-59
2022/02/03 13:25:16;;;;;;;6.82;3.20;;;;;;;;;;143726;632;46012;-59
2022/02/03 13:28:01;;;;;;;7.65;3.95;;;;;;;;;;143731;586;46021;-59
2022/02/03 13:30:52;;;;;;;5.32;3.55;;;;;;;;;;143727;598;46023;-60
2022/02/03 13:33:30;;;;;;;6.68;3.42;;;;;;;;;;143725;570;46020;-60
2022/02/03 13:36:07;;;;;;;5.03;3.20;;;;;;;;;;143727;654;46012;-59
2022/02/03 13:38:57;;;;;;;8.75;3.70;;;;;;;;;;143731;618;46020;-59
2022/02/03 13:41:26;;;;;;;6.28;3.87;;;;;;;;;;143727;619;46020;-59
2022/02/03 13:43:53;;;;;;;6.20;4.07;;;;;;;;;;143724;600;46919;-59
2022/02/03 13:46:46;;;;;;;5.75;3.12;;;;;;;;;;143728;607;46012;-59
2022/02/03 13:49:15;;;;;;;4.03;2.97;;;;;;;;;;143731;577;46020;-59
2022/02/03 13:51:43;;;;;;;9.50;3.42;;;;;;;;;;143728;565;46020;-59
2022/02/03 14:14:59;;;;;;;5.90;3.65;;;;;;;;;;143728;628;46014;-59
2022/02/03 14:26:47;;;;;;;4.05;3.05;;;;;;;;;;143731;569;46020;-59
2022/02/03 14:28:40;;;;;;;7.97;3.83;;;;;;;;;;143725;666;46012;-59
2022/02/03 14:31:09;;;;;;;7.45;2.72;;;;;;;;;;143728;597;46012;-58
2022/02/03 14:33:39;;;;;;;7.32;3.00;;;;;;;;;;143729;581;46029;-59
2022/02/03 14:36:10;;;;;;;4.80;3.62;;;;;;;;;;143728;626;46023;-59
2022/02/03 14:38:47;;;;;;;5.00;3.45;;;;;;;;;;143724;606;46020;-58
2022/02/03 14:41:31;;;;;;;4.93;3.20;;;;;;;;;;143726;656;46013;-58
2022/02/03 14:44:00;;;;;;;4.12;3.20;;;;;;;;;;143729;623;46021;-59
2022/02/03 14:46:27;;;;;;;4.50;2.90;;;;;;;;;;143727;583;46047;-58
2022/02/03 14:48:54;;;;;;;6.40;3.08;;;;;;;;;;143727;583;46021;-59
2022/02/03 14:51:26;;;;;;;4.45;2.92;;;;;;;;;;143728;625;46012;-58
2022/02/03 14:53:57;;;;;;;5.70;3.20;;;;;;;;;;143731;564;46020;-59
2022/02/03 14:59:10;;;;;;;6.47;3.22;;;;;;;;;;143729;581;45915;-59
2022/02/03 15:01:38;;;;;;;4.40;3.30;;;;;;;;;;143727;582;46012;-58
2022/02/03 15:04:11;;;;;;;6.60;3.33;;;;;;;;;;143730;672;46020;-58
2022/02/03 15:06:41;;;;;;;6.05;3.12;;;;;;;;;;143728;614;46023;-58
2022/02/03 15:09:21;;;;;;;3.58;3.03;;;;;;;;;;143725;640;46020;-58
2022/02/03 15:11:59;;;;;;;4.30;3.22;;;;;;;;;;143726;570;46013;-58
2022/02/03 15:14:26;;;;;;;6.35;3.08;;;;;;;;;;143727;600;46020;-59
2022/02/03 15:16:53;;;;;;;5.07;3.08;;;;;;;;;;143727;593;47020;-58
2022/02/03 15:19:20;;;;;;;7.70;4.00;;;;;;;;;;143727;632;46021;-58
2022/02/03 15:21:47;;;;;;;4.00;3.17;;;;;;;;;;143727;615;46012;-58
2022/02/03 15:24:14;;;;;;;5.87;3.22;;;;;;;;;;143731;588;46020;-58
2022/02/03 15:26:41;;;;;;;5.68;3.42;;;;;;;;;;143727;658;46022;-58
2022/02/03 15:29:11;;;;;;;5.75;2.95;;;;;;;;;;143725;609;46020;-59
2022/02/03 15:31:37;;;;;;;5.57;3.62;;;;;;;;;;143730;591;45020;-59
2022/02/03 15:34:08;;;;;;;5.70;3.45;;;;;;;;;;143730;565;46020;-59
2022/02/03 15:36:37;;;;;;;3.80;3.28;;;;;;;;;;143728;613;46020;-58
2022/02/03 15:39:08;;;;;;;4.03;3.28;;;;;;;;;;143724;572;46020;-59
2022/02/03 15:41:35;;;;;;;4.93;3.60;;;;;;;;;;143727;606;46012;-59
2022/02/03 15:44:03;;;;;;;4.18;3.30;;;;;;;;;;143730;573;46020;-59
2022/02/03 15:46:33;;;;;;;4.47;3.37;;;;;;;;;;143728;609;46020;-58
2022/02/03 15:49:18;;;;;;;4.45;3.40;;;;;;;;;;143727;565;46021;-58
2022/02/03 15:57:55;;;;;;;5.00;2.80;;;;;;;;;;143727;576;46021;-58
2022/02/03 16:17:08;;;;;;;6.27;3.47;;;;;;;;;;143728;584;46020;-59
2022/02/03 16:19:50;;;;;;;6.60;3.60;;;;;;;;;;143727;612;46022;-58
2022/02/03 16:22:27;;;;;;;5.05;3.47;;;;;;;;;;143724;598;46919;-58
2022/02/03 16:25:03;;;;;;;6.07;3.60;;;;;;;;;;143728;572;45913;-58
2022/02/03 16:55:17;;;;;;;5.60;3.40;;;;;;;;;;143728;583;46020;-58
2022/02/03 16:57:46;;;;;;;5.62;3.78;;;;;;;;;;143726;629;46012;-58
2022/02/03 17:00:15;;;;;;;8.93;4.35;;;;;;;;;;143732;601;45020;-59
2022/02/03 17:02:43;;;;;;;9.07;3.78;;;;;;;;;;143728;583;46022;-59
2022/02/03 17:05:10;;;;;;;6.47;4.07;;;;;;;;;;143726;603;46020;-59
2022/02/03 17:07:38;;;;;;;6.87;3.72;;;;;;;;;;143728;594;46012;-59
2022/02/03 17:10:06;;;;;;;6.30;3.35;;;;;;;;;;143732;585;45020;-59
2022/02/03 17:12:33;;;;;;;6.03;4.00;;;;;;;;;;143728;575;46021;-59
2022/02/03 17:15:00;;;;;;;6.15;3.90;;;;;;;;;;143727;619;46020;-59
2022/02/03 17:17:27;;;;;;;9.50;4.18;;;;;;;;;;143727;611;46014;-59
2022/02/03 17:19:54;;;;;;;5.57;3.90;;;;;;;;;;143732;564;45021;-59
2022/02/03 17:22:31;;;;;;;6.82;4.03;;;;;;;;;;143727;569;46022;-58
2022/02/03 17:25:08;;;;;;;9.68;4.18;;;;;;;;;;143724;579;46020;-59
2022/02/03 17:27:44;;;;;;;6.22;4.22;;;;;;;;;;143727;614;46914;-59
2022/02/03 17:30:29;;;;;;;6.47;4.28;;;;;;;;;;143731;571;46020;-58
2022/02/03 18:02:59;;;;;;;6.87;4.18;;;;;;;;;;143725;570;46020;-59
2022/02/03 18:03:43;;;;;;;6.93;3.78;;;;;;;;;;143741;597;46013;-59
2022/02/03 18:06:49;;;;;;;5.05;3.30;;;;;;;;;;143728;628;46014;-59
2022/02/03 18:09:13;;;;;;;4.65;3.67;;;;;;;;;;143729;581;46917;-59
2022/02/03 18:17:31;;;;;;;6.00;3.85;;;;;;;;;;143729;566;46020;-58
2022/02/03 18:31:26;;;;;;;6.05;4.28;;;;;;;;;;143729;585;46010;-58
2022/02/03 18:34:37;;;;;;;4.97;3.70;;;;;;;;;;143728;663;46031;-59
2022/02/03 18:36:53;;;;;;;5.82;4.10;;;;;;;;;;143726;617;46020;-58
2022/02/03 18:50:44;;;;;;;4.68;3.75;;;;;;;;;;143728;596;47021;-58
2022/02/03 18:53:16;;;;;;;3.75;3.42;;;;;;;;;;143730;573;46010;-58
2022/02/03 19:15:45;;;;;;;4.30;3.80;;;;;;;;;;143726;676;46020;-58
2022/02/03 19:26:58;;;;;;;9.57;4.10;;;;;;;;;;143730;652;45917;-58
2022/02/03 19:57:33;;;;;;;5.62;4.28;;;;;;;;;;143727;655;46020;-57
2022/02/03 20:05:46;;;;;;;10.30;4.87;;;;;;;;;;143730;571;46020;-58
2022/02/03 20:08:28;;;;;;;11.25;4.55;;;;;;;;;;143728;625;47020;-58
2022/02/03 20:10:56;;;;;;;7.55;4.22;;;;;;;;;;143726;598;46918;-58
2022/02/03 20:13:23;;;;;;;7.00;4.10;;;;;;;;;;143731;647;45020;-58
2022/02/03 20:15:50;;;;;;;8.32;3.90;;;;;;;;;;143732;625;46020;-58
2022/02/03 20:18:19;;;;;;;4.40;4.00;;;;;;;;;;143729;597;46021;-58
2022/02/03 20:20:47;;;;;;;7.97;4.53;;;;;;;;;;143729;575;46020;-58
2022/02/03 20:23:17;;;;;;;6.80;4.40;;;;;;;;;;143729;658;46012;-58
2022/02/03 20:25:54;;;;;;;4.72;3.80;;;;;;;;;;143733;575;46021;-58
2022/02/03 20:28:20;;;;;;;10.55;4.03;;;;;;;;;;143730;656;46020;-58
2022/02/03 20:30:47;;;;;;;6.15;3.92;;;;;;;;;;143729;568;46020;-58
2022/02/03 20:33:15;;;;;;;5.15;3.87;;;;;;;;;;143731;605;46012;-58
2022/02/03 20:35:42;;;;;;;5.30;3.90;;;;;;;;;;143733;595;46020;-58
2022/02/03 20:38:09;;;;;;;5.93;3.97;;;;;;;;;;143730;679;46022;-58
2022/02/03 20:40:36;;;;;;;5.35;3.90;;;;;;;;;;143728;586;46021;-58
2022/02/03 20:43:04;;;;;;;4.82;3.83;;;;;;;;;;143730;661;46012;-58
2022/02/03 20:45:31;;;;;;;6.97;3.67;;;;;;;;;;143734;565;45031;-58
2022/02/03 20:47:58;;;;;;;5.47;3.70;;;;;;;;;;143729;583;46023;-58
2022/02/03 20:50:25;;;;;;;4.10;3.70;;;;;;;;;;143727;638;46020;-58
2022/02/03 20:52:52;;;;;;;5.18;4.07;;;;;;;;;;143729;610;46012;-57
2022/02/03 20:55:19;;;;;;;5.30;3.62;;;;;;;;;;143734;601;45027;-58
2022/02/03 20:57:46;;;;;;;5.05;3.80;;;;;;;;;;143730;647;46020;-58
2022/02/03 21:00:26;;;;;;;5.18;4.12;;;;;;;;;;143729;605;46020;-58
2022/02/03 21:03:07;;;;;;;6.28;4.40;;;;;;;;;;143731;590;45021;-58
2022/02/03 21:05:34;;;;;;;5.47;4.10;;;;;;;;;;143734;672;45020;-58
2022/02/03 21:08:01;;;;;;;4.32;3.67;;;;;;;;;;143730;616;46022;-58
2022/02/03 21:10:30;;;;;;;5.05;3.42;;;;;;;;;;143727;602;46020;-58
2022/02/03 21:12:58;;;;;;;6.10;3.90;;;;;;;;;;143729;601;46020;-58
2022/02/03 21:15:34;;;;;;;4.20;3.30;;;;;;;;;;143734;585;45020;-58
2022/02/03 21:18:06;;;;;;;7.82;4.60;;;;;;;;;;143729;579;46023;-58
2022/02/03 21:20:35;;;;;;;4.85;3.85;;;;;;;;;;143726;618;46020;-58
2022/02/03 21:23:04;;;;;;;4.22;3.67;;;;;;;;;;143731;598;46012;-58
2022/02/03 21:25:35;;;;;;;5.07;3.92;;;;;;;;;;143733;589;46021;-58
2022/02/03 21:28:10;;;;;;;5.40;4.05;;;;;;;;;;143729;584;46022;-57
2022/02/03 21:30:37;;;;;;;6.90;4.10;;;;;;;;;;143726;601;46020;-58
2022/02/03 21:33:06;;;;;;;5.78;3.83;;;;;;;;;;143730;594;46012;-58
2022/02/03 21:35:33;;;;;;;6.07;3.83;;;;;;;;;;143733;613;46010;-58
2022/02/03 21:38:00;;;;;;;4.95;3.92;;;;;;;;;;143730;580;46020;-58
2022/02/03 21:40:27;;;;;;;7.30;4.30;;;;;;;;;;143727;714;46021;-58
2022/02/03 21:42:54;;;;;;;9.05;4.18;;;;;;;;;;143729;571;46012;-58
2022/02/03 21:45:22;;;;;;;6.65;4.03;;;;;;;;;;143731;598;46020;-58
2022/02/03 21:47:51;;;;;;;5.00;3.95;;;;;;;;;;143730;606;46021;-58
2022/02/03 21:50:19;;;;;;;5.18;3.60;;;;;;;;;;143726;587;46021;-58
2022/02/03 21:52:51;;;;;;;4.70;3.92;;;;;;;;;;143726;584;46020;-58
2022/02/03 21:55:20;;;;;;;4.93;3.47;;;;;;;;;;143732;570;46018;-58
2022/02/03 21:57:50;;;;;;;5.90;4.30;;;;;;;;;;143729;619;46022;-58
2022/02/03 22:00:19;;;;;;;5.78;4.03;;;;;;;;;;143727;586;46020;-57
2022/02/03 22:02:47;;;;;;;6.25;4.47;;;;;;;;;;143729;564;46012;-58
2022/02/03 22:05:15;;;;;;;6.80;4.00;;;;;;;;;;143733;611;46020;-58
2022/02/03 22:07:46;;;;;;;6.93;4.93;;;;;;;;;;143730;576;46020;-58
2022/02/03 22:10:18;;;;;;;4.60;3.58;;;;;;;;;;143727;578;46021;-58
2022/02/03 22:12:45;;;;;;;5.85;4.12;;;;;;;;;;143730;592;46012;-58
2022/02/03 22:15:12;;;;;;;5.97;4.18;;;;;;;;;;143732;569;46020;-58
2022/02/03 22:17:39;;;;;;;4.97;3.78;;;;;;;;;;143729;614;46023;-58
2022/02/03 22:20:15;;;;;;;5.62;3.87;;;;;;;;;;143729;590;46020;-58
2022/02/03 22:42:29;;;;;;;5.95;3.62;;;;;;;;;;143730;617;46012;-58
2022/02/03 22:45:19;;;;;;;7.93;4.35;;;;;;;;;;143730;577;46012;-58
2022/02/03 22:50:38;;;;;;;7.65;4.32;;;;;;;;;;143730;620;46012;-58
2022/02/03 22:53:05;;;;;;;5.85;4.03;;;;;;;;;;143727;578;46021;-58
2022/02/03 22:55:35;;;;;;;7.45;4.85;;;;;;;;;;143728;577;46012;-57
2022/02/03 22:58:28;;;;;;;5.35;3.53;;;;;;;;;;143731;623;46020;-58
2022/02/03 23:00:59;;;;;;;6.30;4.18;;;;;;;;;;143728;595;46031;-58
2022/02/03 23:03:30;;;;;;;3.65;3.35;;;;;;;;;;143730;569;46020;-57
2022/02/03 23:05:58;;;;;;;5.40;3.87;;;;;;;;;;143729;633;46012;-57
2022/02/03 23:14:11;;;;;;;9.18;3.97;;;;;;;;;;143740;593;45928;-57
2022/02/03 23:16:47;;;;;;;9.40;4.43;;;;;;;;;;143730;586;46012;-58
2022/02/03 23:22:13;;;;;;;6.37;4.18;;;;;;;;;;143731;653;45024;-57
2022/02/03 23:24:42;;;;;;;5.43;3.78;;;;;;;;;;143727;657;46021;-57
2022/02/03 23:29:55;;;;;;;5.00;3.90;;;;;;;;;;143734;586;45020;-58
2022/02/03 23:32:23;;;;;;;5.75;3.47;;;;;;;;;;143726;621;47023;-58
2022/02/03 23:34:55;;;;;;;9.02;3.78;;;;;;;;;;143726;570;46020;-58
2022/02/03 23:37:22;;;;;;;9.73;4.90;;;;;;;;;;143728;579;46012;-57
2022/02/03 23:40:13;;;;;;;4.97;3.70;;;;;;;;;;143733;569;46010;-58
